Barkman, Texas
Current Conditions -  °F | °C
As of 9:53 PM on Saturday 25 Oct 2014 (Local Time) from KTXK Reporting Station
Clear Clear  
Wind Chill: 69°   Ceiling: Unl
Heat Index: 69°   Visibility: 9mi
Dew Point: 64°   Wind: 5mph
Humidity: 84%   Direction: 200°SSW
Pressure: 30.07"   Gusts: NA
Location:  33.474°N, 94.2882°W
Report Text: KTXK 260253Z AUTO 20004KT 9SM CLR 21/18 A3007 RMK AO2 SLP177 T02060178 51005
Loading
Personal Weather Stations






























Interactive Weather Map
Tropical Storm Tracking
New forecast layout! Learn more

10-Day Weather Forecast

Advertisements
Track Severe Weather on mobile